Time;durP1;ratioP1;P1;durP2;ratioP2;P2;SDS_P1;SDS_P2;PMS_P1;PMS_P2;Temp;Humidity;BMP_temperature;BMP_pressure;BME280_temperature;BME280_humidity;BME280_pressure;Samples;Min_cycle;Max_cycle;Signal;HPM_P1;HPM_P2
2023/01/09 00:01:47;;;;;;;9.27;2.78;;;6.20;99.90;;;;;;5038576;28;20040;-50
2023/01/09 00:04:12;;;;;;;6.25;2.67;;;6.90;99.90;;;;;;5016681;28;20304;-49
2023/01/09 00:06:39;;;;;;;8.75;2.80;;;;;;;;;;5035350;28;20129;-50
2023/01/09 00:09:05;;;;;;;6.97;2.90;;;7.20;99.90;;;;;;5019714;28;20054;-48
2023/01/09 00:11:31;;;;;;;6.35;2.70;;;6.90;99.90;;;;;;5018208;28;20075;-51
2023/01/09 00:13:57;;;;;;;5.80;2.35;;;6.90;99.90;;;;;;5038897;28;20034;-49
2023/01/09 00:16:23;;;;;;;7.40;2.50;;;7.50;99.90;;;;;;5035143;28;20313;-50
2023/01/09 00:18:52;;;;;;;6.57;3.08;;;;;;;;;;5037864;28;20052;-50
2023/01/09 00:21:18;;;;;;;7.10;2.50;;;7.00;99.90;;;;;;5033567;28;20065;-49
2023/01/09 00:23:44;;;;;;;6.95;2.42;;;7.00;99.90;;;;;;5038061;28;20525;-49
2023/01/09 00:26:17;;;;;;;10.32;2.85;;;6.70;99.90;;;;;;5037435;28;20037;-48
2023/01/09 00:28:44;;;;;;;6.68;2.28;;;;;;;;;;5036506;28;20499;-48
2023/01/09 00:31:11;;;;;;;7.82;2.60;;;7.00;99.90;;;;;;5033872;28;20402;-49
2023/01/09 00:33:43;;;;;;;6.70;2.85;;;6.70;99.90;;;;;;5034108;28;20029;-50
2023/01/09 00:36:09;;;;;;;8.88;2.65;;;7.00;99.90;;;;;;5035056;28;20069;-50
2023/01/09 00:38:36;;;;;;;8.45;2.65;;;7.30;99.90;;;;;;5041383;28;20045;-48
2023/01/09 00:41:04;;;;;;;8.13;3.00;;;7.10;99.90;;;;;;5033234;28;20041;-50
2023/01/09 00:43:38;;;;;;;6.28;3.13;;;7.50;99.90;;;;;;5031171;28;20037;-47
2023/01/09 00:46:05;;;;;;;7.93;2.80;;;7.00;99.90;;;;;;5027688;28;20041;-48
2023/01/09 00:48:32;;;;;;;7.57;3.10;;;7.30;99.90;;;;;;5037984;28;20038;-48
2023/01/09 00:50:58;;;;;;;5.75;2.33;;;7.40;99.90;;;;;;5034829;28;20033;-49
2023/01/09 00:53:26;;;;;;;7.68;2.20;;;;;;;;;;5011598;28;20504;-51
2023/01/09 00:55:53;;;;;;;6.72;2.30;;;7.30;99.90;;;;;;5025557;28;20040;-48
2023/01/09 00:58:19;;;;;;;10.32;3.10;;;7.60;99.90;;;;;;5021808;28;20132;-49
2023/01/09 01:00:44;;;;;;;8.75;2.80;;;7.60;99.90;;;;;;5034719;28;20125;-48
2023/01/09 01:03:10;;;;;;;10.18;2.25;;;7.20;99.90;;;;;;5042854;28;20502;-48
2023/01/09 01:08:20;;;;;;;7.95;2.47;;;7.30;99.90;;;;;;5031052;28;20091;-47
2023/01/09 01:10:46;;;;;;;7.25;2.05;;;7.10;99.90;;;;;;5032509;28;20061;-49
2023/01/09 01:13:12;;;;;;;7.60;2.88;;;7.80;99.90;;;;;;5032177;28;20033;-47
2023/01/09 01:15:39;;;;;;;9.88;2.42;;;7.30;99.90;;;;;;5016114;28;20053;-48
2023/01/09 01:18:05;;;;;;;8.70;2.47;;;7.70;99.90;;;;;;5031322;28;20107;-47
2023/01/09 01:20:31;;;;;;;9.80;2.38;;;7.40;99.90;;;;;;5032346;28;20045;-49
2023/01/09 01:22:57;;;;;;;7.75;2.55;;;7.60;99.90;;;;;;5033684;28;20036;-48
2023/01/09 01:25:23;;;;;;;5.57;2.03;;;7.00;99.90;;;;;;5041675;28;20127;-48
2023/01/09 01:27:48;;;;;;;8.93;2.30;;;7.30;99.90;;;;;;5014792;28;20506;-49
2023/01/09 01:30:15;;;;;;;8.02;2.30;;;;;;;;;;5031788;28;20036;-48
2023/01/09 01:32:41;;;;;;;10.43;2.25;;;7.30;99.90;;;;;;5033353;28;20514;-48
2023/01/09 01:35:08;;;;;;;8.75;2.50;;;7.70;99.90;;;;;;5036710;28;20030;-47
2023/01/09 01:37:35;;;;;;;6.20;2.22;;;7.50;99.90;;;;;;5023739;28;20065;-49
2023/01/09 01:40:01;;;;;;;11.23;2.25;;;7.40;99.90;;;;;;5029338;28;20034;-47
2023/01/09 01:42:26;;;;;;;7.88;2.20;;;7.70;99.90;;;;;;5040784;28;20032;-48
2023/01/09 01:44:59;;;;;;;12.38;2.72;;;7.60;99.90;;;;;;5032361;28;20030;-48
2023/01/09 01:47:37;;;;;;;11.57;2.55;;;7.30;99.90;;;;;;5021916;28;20056;-48
2023/01/09 01:50:12;;;;;;;7.53;2.00;;;7.60;99.90;;;;;;5024637;28;20045;-48
2023/01/09 01:52:37;;;;;;;8.68;2.17;;;7.50;99.90;;;;;;5032312;28;20068;-48
2023/01/09 01:55:07;;;;;;;7.13;2.47;;;6.60;99.90;;;;;;5038766;28;20033;-49
2023/01/09 01:57:33;;;;;;;18.92;3.88;;;6.40;99.90;;;;;;5036519;28;20521;-48
2023/01/09 02:00:02;;;;;;;9.35;2.95;;;6.90;99.90;;;;;;5016937;28;20045;-49
2023/01/09 02:02:31;;;;;;;7.10;1.88;;;7.20;99.90;;;;;;5013443;28;20487;-49
2023/01/09 02:04:58;;;;;;;9.98;1.92;;;6.90;99.90;;;;;;5025417;28;20045;-48
2023/01/09 02:07:24;;;;;;;11.27;2.28;;;6.50;99.90;;;;;;5013761;28;20041;-48
2023/01/09 02:09:51;;;;;;;8.25;2.40;;;;;;;;;;5038746;28;20033;-48
2023/01/09 02:12:23;;;;;;;11.07;2.42;;;6.60;99.90;;;;;;5032967;28;20450;-47
2023/01/09 02:15:04;;;;;;;8.32;1.90;;;6.80;99.90;;;;;;5031766;28;20626;-47
2023/01/09 02:18:13;;;;;;;7.47;2.08;;;6.00;99.90;;;;;;5021742;28;20045;-48
2023/01/09 02:20:55;;;;;;;9.48;3.30;;;6.60;99.90;;;;;;5036429;28;20047;-50
2023/01/09 02:23:26;;;;;;;11.70;2.58;;;6.60;99.90;;;;;;5033040;28;20080;-49
2023/01/09 02:26:16;;;;;;;8.88;2.30;;;6.30;99.90;;;;;;5031167;28;20120;-47
2023/01/09 02:28:57;;;;;;;8.88;1.90;;;6.10;99.90;;;;;;5034510;28;20029;-48
2023/01/09 02:31:36;;;;;;;8.23;1.95;;;6.30;99.90;;;;;;5036626;28;20475;-47
2023/01/09 02:34:18;;;;;;;8.05;2.00;;;6.20;99.90;;;;;;5032694;28;20065;-48
2023/01/09 02:37:25;;;;;;;8.98;2.10;;;6.50;99.90;;;;;;5031108;28;20037;-47
2023/01/09 02:39:56;;;;;;;7.85;2.30;;;;;;;;;;5028937;28;20053;-47
2023/01/09 02:42:23;;;;;;;10.20;2.08;;;6.10;99.90;;;;;;5030150;28;20099;-50
2023/01/09 02:44:49;;;;;;;11.65;2.55;;;5.80;99.90;;;;;;5030247;28;20042;-48
2023/01/09 02:47:14;;;;;;;8.90;2.30;;;5.80;99.90;;;;;;5026515;28;20044;-52
2023/01/09 02:49:46;;;;;;;11.02;3.97;;;6.00;99.90;;;;;;5030024;28;20116;-51
2023/01/09 02:52:17;;;;;;;8.55;2.80;;;5.40;99.90;;;;;;5029015;28;20029;-47
2023/01/09 02:55:11;;;;;;;8.77;2.42;;;6.30;99.90;;;;;;5028356;28;20439;-48
2023/01/09 02:58:00;;;;;;;9.18;2.78;;;6.20;99.90;;;;;;5023540;28;20041;-48
2023/01/09 03:00:56;;;;;;;12.55;3.25;;;6.10;99.90;;;;;;5027175;28;20049;-48
2023/01/09 03:03:39;;;;;;;10.65;4.28;;;5.50;99.90;;;;;;5020372;28;20057;-50
2023/01/09 03:06:23;;;;;;;11.88;2.75;;;5.90;99.90;;;;;;5027982;28;20049;-47
2023/01/09 03:08:53;;;;;;;8.53;3.43;;;5.90;99.90;;;;;;5026101;28;20069;-51
2023/01/09 03:11:20;;;;;;;10.60;2.63;;;6.10;99.90;;;;;;5029785;28;20511;-47
2023/01/09 03:13:57;;;;;;;10.57;3.17;;;5.50;99.90;;;;;;5034699;28;20049;-48
2023/01/09 03:16:32;;;;;;;8.45;2.40;;;5.90;99.90;;;;;;5029551;28;20060;-50
2023/01/09 03:19:00;;;;;;;12.15;3.05;;;5.50;99.90;;;;;;5020177;28;20384;-47
2023/01/09 03:21:27;;;;;;;9.75;3.30;;;5.90;99.90;;;;;;5029561;28;20568;-47
2023/01/09 03:23:54;;;;;;;12.90;3.30;;;5.90;99.90;;;;;;5029678;28;20033;-47
2023/01/09 03:26:21;;;;;;;8.45;3.45;;;5.70;99.90;;;;;;5029467;28;20438;-47
2023/01/09 03:28:47;;;;;;;11.55;3.60;;;5.90;99.90;;;;;;5011080;28;20038;-47
2023/01/09 03:31:13;;;;;;;10.30;3.95;;;6.00;1.00;;;;;;5026294;28;20037;-47
2023/01/09 03:33:39;;;;;;;13.30;3.85;;;5.90;1.00;;;;;;5030057;28;20072;-47
2023/01/09 03:36:05;;;;;;;13.10;3.92;;;5.90;1.00;;;;;;5030822;28;20037;-47
2023/01/09 03:38:32;;;;;;;8.48;3.53;;;5.80;1.00;;;;;;5029365;28;20047;-51
2023/01/09 03:40:58;;;;;;;11.15;4.25;;;6.00;1.00;;;;;;5008907;28;20097;-47
2023/01/09 03:43:23;;;;;;;11.95;4.05;;;6.20;1.00;;;;;;5010045;28;20073;-50
2023/01/09 03:45:49;;;;;;;13.30;3.60;;;5.40;1.00;;;;;;5029424;28;20084;-48
2023/01/09 03:48:15;;;;;;;9.63;4.22;;;;;;;;;;5028924;28;20033;-48
2023/01/09 03:50:46;;;;;;;13.13;4.63;;;5.40;1.00;;;;;;5027342;28;20035;-49
2023/01/09 03:53:16;;;;;;;8.70;3.65;;;;;;;;;;5023396;28;20438;-47
2023/01/09 03:55:46;;;;;;;11.43;4.20;;;6.20;99.90;;;;;;5028841;28;20045;-51
2023/01/09 03:58:12;;;;;;;10.55;4.28;;;5.60;99.90;;;;;;5010754;28;20041;-49
2023/01/09 04:00:39;;;;;;;12.10;4.40;;;6.00;99.90;;;;;;5029183;28;20073;-48
2023/01/09 04:03:06;;;;;;;12.68;5.53;;;6.10;99.90;;;;;;5009635;28;20090;-47
2023/01/09 04:05:32;;;;;;;16.30;5.32;;;6.00;99.90;;;;;;5027853;28;20042;-48
2023/01/09 04:07:58;;;;;;;17.38;5.82;;;6.10;99.90;;;;;;5031958;28;20113;-49
2023/01/09 04:10:23;;;;;;;10.57;6.03;;;5.80;99.90;;;;;;5032735;28;20042;-48
2023/01/09 04:12:49;;;;;;;16.65;6.28;;;6.00;99.90;;;;;;5032925;28;20403;-48
2023/01/09 04:15:15;;;;;;;14.85;6.55;;;5.90;99.90;;;;;;5012369;28;20158;-47
2023/01/09 04:17:41;;;;;;;11.95;6.50;;;5.60;99.90;;;;;;5032044;28;20041;-48
2023/01/09 04:20:07;;;;;;;13.75;6.57;;;6.00;99.90;;;;;;5031581;28;20029;-49
2023/01/09 04:22:33;;;;;;;13.95;7.53;;;6.20;99.90;;;;;;5029380;28;20471;-47
2023/01/09 04:24:59;;;;;;;15.45;6.57;;;6.10;99.90;;;;;;5032243;28;20061;-48
2023/01/09 04:27:24;;;;;;;13.55;6.50;;;5.90;99.90;;;;;;5032389;28;20046;-48
2023/01/09 04:29:50;;;;;;;11.73;6.20;;;5.90;99.90;;;;;;5011502;28;20038;-48
2023/01/09 04:32:16;;;;;;;18.40;6.72;;;6.10;99.90;;;;;;5026741;28;20041;-48
2023/01/09 04:34:41;;;;;;;13.90;7.10;;;6.50;99.90;;;;;;5014508;28;20058;-47
2023/01/09 04:37:07;;;;;;;10.32;6.20;;;6.30;99.90;;;;;;5026632;28;20109;-49
2023/01/09 04:39:33;;;;;;;16.60;6.40;;;6.20;99.90;;;;;;5021647;28;20116;-49
2023/01/09 04:41:58;;;;;;;12.70;7.10;;;6.10;99.90;;;;;;5023923;28;20095;-48
2023/01/09 04:44:27;;;;;;;13.20;6.32;;;6.30;99.90;;;;;;5032343;28;20037;-50
2023/01/09 04:46:55;;;;;;;15.00;7.18;;;5.50;99.90;;;;;;5031656;28;20091;-51
2023/01/09 04:49:21;;;;;;;15.20;6.50;;;5.90;99.90;;;;;;5025448;28;20465;-51
2023/01/09 04:51:47;;;;;;;15.00;6.35;;;6.10;99.90;;;;;;5023829;28;20125;-48
2023/01/09 04:54:14;;;;;;;14.68;7.20;;;6.10;99.90;;;;;;5030642;28;20041;-48
2023/01/09 04:56:39;;;;;;;14.27;7.03;;;6.10;99.90;;;;;;5031922;28;20107;-47
2023/01/09 04:59:06;;;;;;;14.48;6.43;;;6.30;99.90;;;;;;5024835;28;20046;-48
2023/01/09 05:01:32;;;;;;;13.63;6.05;;;;;;;;;;5032076;28;20030;-48
2023/01/09 05:03:58;;;;;;;14.77;6.10;;;5.70;99.90;;;;;;5029332;28;20556;-48
2023/01/09 05:06:24;;;;;;;15.73;6.95;;;6.10;99.90;;;;;;5028592;28;20041;-48
2023/01/09 05:08:50;;;;;;;13.75;6.55;;;5.70;99.90;;;;;;5030710;28;20055;-46
2023/01/09 05:11:15;;;;;;;12.55;6.20;;;5.80;99.90;;;;;;5031571;28;20502;-47
2023/01/09 05:13:41;;;;;;;15.52;6.95;;;5.80;99.90;;;;;;5031406;28;20046;-48
2023/01/09 05:16:07;;;;;;;13.27;5.72;;;5.90;99.90;;;;;;5026167;28;20033;-50
2023/01/09 05:18:33;;;;;;;13.38;6.15;;;5.80;99.90;;;;;;5030981;28;20068;-48
2023/01/09 05:20:59;;;;;;;12.80;6.47;;;6.30;99.90;;;;;;5031451;28;20072;-48
2023/01/09 05:23:24;;;;;;;13.05;6.65;;;6.30;99.90;;;;;;5031476;28;20037;-47
2023/01/09 05:25:50;;;;;;;14.45;6.88;;;6.20;99.90;;;;;;5029999;28;20037;-48
2023/01/09 05:28:16;;;;;;;11.77;5.97;;;6.00;99.90;;;;;;5027750;28;20046;-50
2023/01/09 05:30:42;;;;;;;11.70;6.22;;;6.30;99.90;;;;;;5030990;28;20045;-47
2023/01/09 05:33:07;;;;;;;15.10;6.35;;;6.50;99.90;;;;;;5029567;28;20030;-47
2023/01/09 05:35:33;;;;;;;11.32;6.38;;;6.20;99.90;;;;;;5031295;28;20514;-49
2023/01/09 05:37:59;;;;;;;12.88;6.97;;;6.30;99.90;;;;;;5030603;28;20041;-47
2023/01/09 05:40:25;;;;;;;20.05;7.32;;;6.00;99.90;;;;;;5041581;28;20414;-51
2023/01/09 05:42:51;;;;;;;15.07;7.47;;;6.10;99.90;;;;;;5023524;28;20052;-47
2023/01/09 05:45:16;;;;;;;14.13;7.68;;;6.20;99.90;;;;;;5041861;28;20139;-48
2023/01/09 05:47:45;;;;;;;14.27;7.80;;;6.00;99.90;;;;;;5039354;28;20095;-48
2023/01/09 05:50:12;;;;;;;15.40;8.05;;;6.60;99.90;;;;;;5009978;28;20033;-50
2023/01/09 05:52:37;;;;;;;19.63;9.02;;;6.40;99.90;;;;;;5024307;28;20029;-51
2023/01/09 05:55:04;;;;;;;14.30;8.57;;;6.10;99.90;;;;;;5031213;28;20047;-50
2023/01/09 05:57:30;;;;;;;20.40;10.13;;;6.30;99.90;;;;;;5012507;28;20507;-49
2023/01/09 05:59:56;;;;;;;18.77;10.18;;;6.50;99.90;;;;;;5037767;28;20073;-47
2023/01/09 06:02:21;;;;;;;17.17;9.70;;;6.60;99.90;;;;;;5031115;28;20120;-48
2023/01/09 06:04:50;;;;;;;19.33;10.48;;;6.50;99.90;;;;;;5014184;28;20042;-48
2023/01/09 06:07:16;;;;;;;18.45;11.02;;;6.50;99.90;;;;;;5005742;28;20594;-47
2023/01/09 06:09:41;;;;;;;19.50;9.43;;;6.50;99.90;;;;;;5028883;28;20141;-48
2023/01/09 06:12:07;;;;;;;19.13;10.32;;;6.40;99.90;;;;;;5012893;28;20036;-49
2023/01/09 06:14:36;;;;;;;19.90;11.00;;;6.40;99.90;;;;;;5036663;28;20037;-51
2023/01/09 06:17:02;;;;;;;15.90;8.95;;;6.50;99.90;;;;;;5031524;28;20037;-47
2023/01/09 06:19:30;;;;;;;15.82;9.50;;;6.30;99.90;;;;;;5041887;28;20069;-48
2023/01/09 06:21:56;;;;;;;18.40;9.88;;;7.20;99.90;;;;;;5037498;28;20179;-47
2023/01/09 06:24:21;;;;;;;18.10;9.68;;;6.60;99.90;;;;;;5012618;28;20136;-47
2023/01/09 06:26:50;;;;;;;22.10;9.70;;;6.40;99.90;;;;;;5029626;28;20041;-48
2023/01/09 06:29:16;;;;;;;17.95;10.73;;;6.30;99.90;;;;;;5018411;28;20041;-48
2023/01/09 06:31:41;;;;;;;15.27;9.65;;;6.30;99.90;;;;;;5026239;28;20116;-47
2023/01/09 06:34:11;;;;;;;16.50;9.13;;;6.50;99.90;;;;;;5030392;28;20041;-50
2023/01/09 06:36:37;;;;;;;15.35;9.45;;;7.10;99.90;;;;;;5029263;28;20036;-49
2023/01/09 06:39:03;;;;;;;16.13;9.45;;;6.30;99.90;;;;;;5037028;28;20434;-49
2023/01/09 06:41:31;;;;;;;19.10;10.05;;;6.90;99.90;;;;;;5041147;28;20154;-48
2023/01/09 06:43:57;;;;;;;15.63;9.55;;;6.50;99.90;;;;;;5030375;28;20039;-47
2023/01/09 06:46:23;;;;;;;17.10;9.90;;;7.20;99.90;;;;;;5040321;28;20411;-48
2023/01/09 06:48:48;;;;;;;22.08;11.48;;;6.00;99.90;;;;;;5028720;28;20033;-49
2023/01/09 06:51:17;;;;;;;15.77;9.52;;;6.20;99.90;;;;;;5019159;28;20033;-48
2023/01/09 06:53:43;;;;;;;20.15;10.75;;;6.80;99.90;;;;;;5029656;28;20087;-49
2023/01/09 06:56:08;;;;;;;17.58;10.63;;;7.00;99.90;;;;;;5024144;28;20396;-49
2023/01/09 06:58:34;;;;;;;18.75;10.60;;;6.10;99.90;;;;;;5028986;28;20137;-48
2023/01/09 07:01:00;;;;;;;19.40;10.95;;;;;;;;;;5012105;28;20109;-48
2023/01/09 07:03:26;;;;;;;18.25;11.43;;;6.50;99.90;;;;;;5031397;28;20041;-48
2023/01/09 07:05:51;;;;;;;20.05;11.23;;;6.00;99.90;;;;;;5027056;28;20398;-47
2023/01/09 07:08:17;;;;;;;18.15;11.90;;;6.20;99.90;;;;;;5028522;28;20491;-49
2023/01/09 07:10:43;;;;;;;17.45;11.93;;;5.80;99.90;;;;;;5029953;28;20384;-47
2023/01/09 07:13:09;;;;;;;18.00;11.23;;;5.90;99.90;;;;;;5024261;28;20041;-46
2023/01/09 07:15:35;;;;;;;21.42;12.57;;;5.70;99.90;;;;;;5011868;28;20056;-47
2023/01/09 07:18:01;;;;;;;17.33;11.32;;;6.20;99.90;;;;;;5011505;28;20068;-47
2023/01/09 07:20:26;;;;;;;16.27;11.10;;;5.80;99.90;;;;;;5030041;28;20103;-47
2023/01/09 07:22:53;;;;;;;20.15;11.23;;;5.70;99.90;;;;;;5029440;28;20459;-49
2023/01/09 07:25:19;;;;;;;22.10;11.88;;;;;;;;;;5011873;28;20056;-48
2023/01/09 07:27:45;;;;;;;21.70;12.43;;;6.10;99.90;;;;;;5011507;28;20168;-46
2023/01/09 07:30:11;;;;;;;18.75;11.80;;;5.80;99.90;;;;;;5029547;28;20515;-47
2023/01/09 07:32:39;;;;;;;18.77;12.45;;;5.80;99.90;;;;;;5029709;28;20083;-48
2023/01/09 07:35:08;;;;;;;19.40;11.90;;;5.50;99.90;;;;;;5029432;28;20195;-47
2023/01/09 07:37:34;;;;;;;17.10;11.80;;;5.80;99.90;;;;;;5028628;28;20041;-48
2023/01/09 07:40:00;;;;;;;22.10;11.65;;;5.60;99.90;;;;;;5029702;28;20454;-46
2023/01/09 07:42:26;;;;;;;19.70;11.57;;;6.00;99.90;;;;;;5032523;28;20396;-47
2023/01/09 07:44:52;;;;;;;17.60;12.23;;;5.90;99.90;;;;;;5011927;28;20121;-49
2023/01/09 07:47:17;;;;;;;19.15;11.02;;;5.50;99.90;;;;;;5030193;28;20571;-47
2023/01/09 07:49:43;;;;;;;19.70;12.18;;;5.20;99.90;;;;;;5029132;28;20120;-47
2023/01/09 07:52:09;;;;;;;20.95;11.00;;;6.00;99.90;;;;;;5026435;28;20034;-50
2023/01/09 07:54:34;;;;;;;17.52;11.05;;;5.70;99.90;;;;;;5031856;28;20041;-47
2023/01/09 07:57:00;;;;;;;19.10;10.35;;;5.70;99.90;;;;;;5031110;28;20033;-46
2023/01/09 07:59:28;;;;;;;17.98;11.13;;;5.60;99.90;;;;;;5031520;28;20049;-46
2023/01/09 08:01:54;;;;;;;18.02;10.50;;;5.80;99.90;;;;;;5030278;28;20048;-49
2023/01/09 08:04:20;;;;;;;18.13;11.07;;;5.60;99.90;;;;;;5032854;28;20087;-47
2023/01/09 08:06:46;;;;;;;19.83;11.35;;;5.80;99.90;;;;;;5031992;28;20049;-47
2023/01/09 08:09:12;;;;;;;17.42;11.07;;;5.80;99.90;;;;;;5031817;28;20491;-47
2023/01/09 08:11:38;;;;;;;17.52;10.55;;;5.40;99.90;;;;;;5032995;28;20047;-48
2023/01/09 08:14:03;;;;;;;16.88;9.80;;;6.20;99.90;;;;;;5032536;28;20033;-48
2023/01/09 08:16:29;;;;;;;17.30;9.93;;;6.10;99.90;;;;;;5032620;28;20155;-47
2023/01/09 08:18:55;;;;;;;14.02;8.85;;;5.80;99.90;;;;;;5032416;28;20419;-47
2023/01/09 08:21:23;;;;;;;18.67;9.93;;;5.50;99.90;;;;;;5032627;28;20041;-47
2023/01/09 08:23:49;;;;;;;16.55;9.88;;;5.40;99.90;;;;;;5032640;28;20037;-46
2023/01/09 08:26:15;;;;;;;17.73;9.18;;;5.60;99.90;;;;;;5032591;28;20075;-48
2023/01/09 08:28:40;;;;;;;19.08;9.07;;;5.20;99.90;;;;;;5031876;28;20045;-49
2023/01/09 08:31:06;;;;;;;17.70;9.05;;;5.90;99.90;;;;;;5032385;28;20522;-47
2023/01/09 08:33:32;;;;;;;14.15;8.98;;;5.70;99.90;;;;;;5014609;28;20112;-49
2023/01/09 08:35:58;;;;;;;18.70;9.35;;;5.80;99.90;;;;;;5032624;28;20025;-46
2023/01/09 08:38:23;;;;;;;13.93;7.90;;;5.90;99.90;;;;;;5031858;28;20037;-48
2023/01/09 08:40:49;;;;;;;16.90;9.90;;;5.30;99.90;;;;;;5032144;28;20029;-50
2023/01/09 08:47:04;;;;;;;16.50;7.50;;;6.00;99.90;;;;;;5032406;28;20042;-48
2023/01/09 08:48:49;;;;;;;16.08;8.32;;;5.60;99.90;;;;;;5031306;28;20057;-47
2023/01/09 08:51:15;;;;;;;14.40;7.40;;;6.00;99.90;;;;;;5031798;28;20048;-47
2023/01/09 08:53:40;;;;;;;12.82;7.70;;;5.70;99.90;;;;;;4998075;28;20053;-48
2023/01/09 08:56:06;;;;;;;17.00;8.18;;;5.60;99.90;;;;;;5032089;28;20035;-46
2023/01/09 08:58:32;;;;;;;15.60;8.13;;;6.00;99.90;;;;;;5013418;28;20092;-48
2023/01/09 09:00:58;;;;;;;15.10;7.05;;;5.80;99.90;;;;;;5032179;28;20084;-47
2023/01/09 09:03:24;;;;;;;11.63;6.47;;;5.70;99.90;;;;;;5032048;28;20037;-47
2023/01/09 09:05:49;;;;;;;12.32;6.80;;;6.50;99.90;;;;;;5031675;28;20095;-46
2023/01/09 09:08:15;;;;;;;11.38;6.57;;;6.00;99.90;;;;;;5031186;28;20466;-48
2023/01/09 09:10:41;;;;;;;14.10;6.38;;;5.80;99.90;;;;;;5031940;28;20060;-47
2023/01/09 09:13:07;;;;;;;11.43;6.05;;;5.80;99.90;;;;;;5024173;28;20034;-47
2023/01/09 09:15:33;;;;;;;12.98;6.43;;;5.70;99.90;;;;;;5006135;28;20068;-48
2023/01/09 09:18:04;;;;;;;12.25;5.95;;;5.90;99.90;;;;;;5030909;28;20087;-48
2023/01/09 09:20:33;;;;;;;12.23;6.80;;;6.00;99.90;;;;;;5023543;28;20065;-48
2023/01/09 09:22:59;;;;;;;14.10;6.60;;;6.10;99.90;;;;;;5031569;28;20037;-48
2023/01/09 09:25:26;;;;;;;17.42;5.63;;;6.00;99.90;;;;;;5016527;28;20042;-47
2023/01/09 09:27:52;;;;;;;11.55;6.53;;;6.20;99.90;;;;;;5022285;28;20112;-46
2023/01/09 09:30:19;;;;;;;13.00;6.55;;;6.10;99.90;;;;;;5030165;28;20048;-46
2023/01/09 09:32:45;;;;;;;10.40;5.32;;;6.00;99.90;;;;;;4996910;28;20048;-46
2023/01/09 09:35:11;;;;;;;10.88;5.82;;;6.30;99.90;;;;;;5031279;28;20025;-47
2023/01/09 09:37:37;;;;;;;14.32;5.70;;;6.80;99.90;;;;;;5012694;28;20114;-46
2023/01/09 09:40:04;;;;;;;13.30;6.47;;;6.70;99.90;;;;;;5031259;28;20116;-47
2023/01/09 09:45:49;;;;;;;12.77;6.15;;;6.60;99.90;;;;;;5028610;28;20563;-46
2023/01/09 09:48:37;;;;;;;10.05;5.28;;;6.00;99.90;;;;;;5012695;28;20087;-47
2023/01/09 09:51:34;;;;;;;15.35;7.10;;;6.40;99.90;;;;;;5006646;28;20041;-47
2023/01/09 09:54:06;;;;;;;8.98;5.38;;;6.50;99.90;;;;;;5031229;28;20539;-46
2023/01/09 09:56:39;;;;;;;10.98;5.75;;;6.50;99.90;;;;;;5030969;28;20129;-47
2023/01/09 09:59:17;;;;;;;13.43;6.18;;;7.00;99.90;;;;;;5030297;28;20037;-46
2023/01/09 10:01:50;;;;;;;12.52;6.47;;;6.50;99.90;;;;;;5030497;28;20041;-46
2023/01/09 10:04:18;;;;;;;13.07;5.88;;;;;;;;;;5029809;28;20988;-46
2023/01/09 10:06:48;;;;;;;10.85;5.60;;;6.30;99.90;;;;;;5030499;28;20060;-46
2023/01/09 10:09:32;;;;;;;11.88;6.70;;;6.50;99.90;;;;;;5030210;28;20034;-47
2023/01/09 10:12:02;;;;;;;12.27;5.97;;;6.40;99.90;;;;;;5030617;28;20033;-46
2023/01/09 10:14:28;;;;;;;10.77;5.80;;;6.80;99.90;;;;;;5012645;28;20484;-47
2023/01/09 10:17:16;;;;;;;9.68;5.32;;;;;;;;;;5030383;28;20037;-46
2023/01/09 10:20:19;;;;;;;10.07;4.88;;;6.60;99.90;;;;;;5020144;28;20129;-47
2023/01/09 10:23:09;;;;;;;10.88;5.72;;;6.40;99.90;;;;;;5030175;28;20454;-47
2023/01/09 10:25:47;;;;;;;11.75;5.18;;;6.80;99.90;;;;;;5030483;28;20465;-48
2023/01/09 10:28:18;;;;;;;13.50;6.15;;;6.30;99.90;;;;;;5029691;28;20069;-46
2023/01/09 10:30:47;;;;;;;10.10;5.35;;;7.00;99.90;;;;;;5030225;28;20041;-46
2023/01/09 10:33:34;;;;;;;9.95;5.80;;;7.00;99.90;;;;;;5012195;28;20045;-47
2023/01/09 10:36:18;;;;;;;14.80;6.30;;;;;;;;;;5030464;28;20083;-47
2023/01/09 10:38:48;;;;;;;9.38;5.68;;;6.40;99.90;;;;;;5028361;28;20120;-46
2023/01/09 10:41:26;;;;;;;8.95;5.47;;;6.70;99.90;;;;;;5029980;28;20115;-46
2023/01/09 10:43:55;;;;;;;9.50;5.63;;;6.80;99.90;;;;;;5030393;28;20041;-46
2023/01/09 10:46:34;;;;;;;10.93;5.38;;;7.00;99.90;;;;;;5030251;28;20045;-47
2023/01/09 10:49:04;;;;;;;11.52;5.80;;;6.60;99.90;;;;;;5029571;28;20044;-47
2023/01/09 10:51:45;;;;;;;11.23;6.00;;;6.30;99.90;;;;;;5028974;28;20061;-47
2023/01/09 10:54:14;;;;;;;12.30;6.28;;;6.40;99.90;;;;;;5030314;28;20073;-46
2023/01/09 10:56:46;;;;;;;9.40;5.65;;;7.20;99.90;;;;;;5029851;28;20073;-47
2023/01/09 10:59:12;;;;;;;11.02;5.20;;;7.00;99.90;;;;;;5029364;28;20123;-46
2023/01/09 11:01:40;;;;;;;12.52;6.28;;;6.60;99.90;;;;;;5029849;28;20138;-45
2023/01/09 11:04:34;;;;;;;12.43;6.15;;;6.90;99.90;;;;;;5012246;28;20049;-47
2023/01/09 11:07:31;;;;;;;11.68;5.55;;;6.70;99.90;;;;;;5021638;28;20054;-47
2023/01/09 11:10:10;;;;;;;11.45;5.80;;;6.90;99.90;;;;;;5022226;28;20120;-47
2023/01/09 11:12:37;;;;;;;11.15;5.45;;;;;;;;;;5029400;28;20038;-46
2023/01/09 11:15:15;;;;;;;13.82;5.97;;;7.10;99.90;;;;;;5031770;28;20065;-46
2023/01/09 11:17:44;;;;;;;11.63;5.70;;;7.20;99.90;;;;;;5033093;28;20042;-46
2023/01/09 11:20:18;;;;;;;11.73;5.20;;;7.70;99.90;;;;;;5026929;28;20507;-48
2023/01/09 11:22:49;;;;;;;10.77;5.25;;;7.20;99.90;;;;;;5032173;28;20045;-45
2023/01/09 11:25:17;;;;;;;9.55;5.43;;;6.90;99.90;;;;;;5034272;28;20040;-46
2023/01/09 11:28:02;;;;;;;10.80;5.25;;;7.00;99.90;;;;;;5033319;28;20041;-46
2023/01/09 11:30:36;;;;;;;11.02;5.45;;;7.30;99.90;;;;;;5031252;28;20120;-46
2023/01/09 11:33:23;;;;;;;12.00;5.63;;;7.30;99.90;;;;;;5033359;28;20033;-47
2023/01/09 11:36:02;;;;;;;10.85;5.75;;;7.20;99.90;;;;;;5033957;28;20499;-48
2023/01/09 11:38:30;;;;;;;13.27;6.00;;;7.40;99.90;;;;;;5033103;28;20048;-49
2023/01/09 11:41:02;;;;;;;10.73;5.93;;;6.70;99.90;;;;;;5033375;28;20037;-48
2023/01/09 11:43:32;;;;;;;12.82;6.18;;;6.70;99.90;;;;;;5032984;28;20398;-46
2023/01/09 11:46:01;;;;;;;15.10;6.13;;;7.60;99.90;;;;;;5033478;28;20049;-46
2023/01/09 11:48:36;;;;;;;13.18;6.55;;;7.20;99.90;;;;;;5032811;28;20041;-46
2023/01/09 11:51:21;;;;;;;16.50;6.50;;;7.10;99.90;;;;;;5005303;28;20111;-48
2023/01/09 11:54:06;;;;;;;12.90;6.40;;;7.70;99.90;;;;;;5023824;28;20468;-47
2023/01/09 11:56:32;;;;;;;12.15;7.05;;;7.80;99.90;;;;;;5033337;28;20052;-49
2023/01/09 11:58:59;;;;;;;13.82;7.55;;;7.80;99.90;;;;;;5014686;28;20033;-48
2023/01/09 12:01:42;;;;;;;10.80;6.00;;;7.60;99.90;;;;;;5033305;28;20044;-47
2023/01/09 12:04:27;;;;;;;12.50;7.00;;;7.90;99.90;;;;;;5028617;28;20443;-47
2023/01/09 12:07:23;;;;;;;13.52;7.05;;;7.80;99.90;;;;;;5014998;28;20121;-48
2023/01/09 12:09:55;;;;;;;16.05;6.70;;;8.30;99.90;;;;;;5032394;28;20052;-46
2023/01/09 12:12:33;;;;;;;13.85;7.40;;;7.90;99.90;;;;;;5025436;28;20034;-47
2023/01/09 12:15:23;;;;;;;13.32;8.52;;;8.00;99.90;;;;;;5025467;28;20065;-49
2023/01/09 12:18:30;;;;;;;14.05;7.65;;;7.70;99.90;;;;;;5014467;28;20518;-47
2023/01/09 12:21:02;;;;;;;12.73;7.13;;;7.80;99.90;;;;;;5032761;28;20399;-47
2023/01/09 12:23:55;;;;;;;14.63;7.03;;;8.30;99.90;;;;;;5029286;28;20042;-47
2023/01/09 12:26:27;;;;;;;10.07;4.80;;;8.30;99.90;;;;;;5031562;28;20095;-47
2023/01/09 12:29:26;;;;;;;10.50;6.35;;;8.10;99.90;;;;;;5024079;28;20068;-47
2023/01/09 12:32:01;;;;;;;12.27;7.15;;;8.30;99.90;;;;;;5026266;28;20041;-47
2023/01/09 12:34:38;;;;;;;;;;;8.40;99.90;;;;;;5029355;28;20044;-47
2023/01/09 12:37:04;;;;;;;11.73;7.07;;;;;;;;;;5024824;28;19916;-47
2023/01/09 12:39:47;;;;;;;12.40;7.28;;;8.20;99.90;;;;;;5032193;28;20037;-47
2023/01/09 12:42:20;;;;;;;13.75;6.97;;;8.70;99.90;;;;;;5027175;28;20446;-47
2023/01/09 12:45:16;;;;;;;13.23;7.38;;;8.70;99.90;;;;;;5032100;28;20051;-49
2023/01/09 12:47:44;;;;;;;9.80;5.72;;;11.40;99.90;;;;;;5019042;28;20072;-50
2023/01/09 12:50:38;;;;;;;10.52;5.95;;;12.30;99.90;;;;;;5032172;28;20038;-50
2023/01/09 12:53:23;;;;;;;11.02;5.65;;;;;;;;;;5014223;28;20041;-46
2023/01/09 12:55:59;;;;;;;;;;;12.60;99.90;;;;;;5032561;28;20076;-47
2023/01/09 12:58:30;;;;;;;13.40;4.90;;;13.10;99.90;;;;;;5031539;28;19917;-45
2023/01/09 13:00:59;;;;;;;11.50;4.80;;;14.50;99.90;;;;;;5031898;28;20069;-45
2023/01/09 13:03:36;;;;;;;9.60;4.15;;;;;;;;;;5031972;28;20499;-47
2023/01/09 13:06:05;;;;;;;10.10;3.75;;;14.10;99.90;;;;;;5031715;28;20044;-46
2023/01/09 13:08:35;;;;;;;10.27;3.97;;;14.20;99.90;;;;;;5013361;28;20502;-50
2023/01/09 13:11:14;;;;;;;8.60;3.70;;;14.40;99.90;;;;;;5031844;28;20061;-47
2023/01/09 13:13:57;;;;;;;10.35;4.15;;;14.30;99.90;;;;;;5031615;28;20472;-47
2023/01/09 13:16:40;;;;;;;10.90;3.42;;;13.90;99.90;;;;;;5013780;28;20362;-48
2023/01/09 13:19:22;;;;;;;9.68;3.30;;;13.80;99.90;;;;;;5031507;28;20041;-50